createdAt,value
2024-01-24T00:00:57.369Z,100335.80
2024-01-24T00:06:27.015Z,100323.60
2024-01-24T00:11:36.844Z,100310.00
2024-01-24T00:16:47.056Z,100301.00
2024-01-24T00:21:57.563Z,100291.20
2024-01-24T00:27:07.925Z,100311.00
2024-01-24T00:32:17.561Z,100293.00
2024-01-24T00:37:27.640Z,100274.80
2024-01-24T00:42:37.490Z,100264.40
2024-01-24T00:47:47.238Z,100223.20
2024-01-24T00:52:57.320Z,100203.40
2024-01-24T00:58:07.295Z,100189.60
2024-01-24T01:03:17.143Z,100180.20
2024-01-24T01:08:27.134Z,100158.60
2024-01-24T01:13:37.140Z,100160.40
2024-01-24T01:18:46.923Z,100145.40
2024-01-24T01:23:56.890Z,100128.00
2024-01-24T01:29:07.209Z,100130.40
2024-01-24T01:34:17.413Z,100108.60
2024-01-24T01:39:27.201Z,100117.20
2024-01-24T01:44:43.966Z,100106.20
2024-01-24T01:49:54.751Z,100102.20
2024-01-24T01:55:05.824Z,100078.00
2024-01-24T02:00:22.533Z,100049.80
2024-01-24T02:05:34.114Z,100037.00
2024-01-24T02:10:45.776Z,100003.60
2024-01-24T02:15:55.724Z,99991.80
2024-01-24T02:21:06.888Z,99972.60
2024-01-24T02:26:16.792Z,99968.20
2024-01-24T02:31:26.695Z,99959.20
2024-01-24T02:36:36.352Z,99960.00
2024-01-24T02:41:47.439Z,99928.00
2024-01-24T02:46:57.829Z,99910.40
2024-01-24T02:52:08.428Z,99880.20
2024-01-24T02:57:18.299Z,99875.80
2024-01-24T03:02:28.012Z,99858.00
2024-01-24T03:07:37.987Z,99836.20
2024-01-24T03:12:47.604Z,99819.20
2024-01-24T03:17:57.316Z,99792.40
2024-01-24T03:23:07.205Z,99774.00
2024-01-24T03:28:17.033Z,99756.40
2024-01-24T03:33:26.715Z,99749.40
2024-01-24T03:38:36.568Z,99747.20
2024-01-24T03:43:46.668Z,99735.80
2024-01-24T03:48:56.684Z,99701.20
2024-01-24T03:54:06.722Z,99687.60
2024-01-24T03:59:16.592Z,99686.60
2024-01-24T04:04:26.662Z,99686.60
2024-01-24T04:09:36.578Z,99689.60
2024-01-24T04:14:46.380Z,99654.00
2024-01-24T04:19:56.237Z,99650.60
2024-01-24T04:25:06.774Z,99637.20
2024-01-24T04:30:18.467Z,99610.80
2024-01-24T04:35:28.808Z,99615.40
2024-01-24T04:40:38.747Z,99599.80
2024-01-24T04:45:48.660Z,99585.80
2024-01-24T04:50:58.421Z,99546.20
2024-01-24T04:56:08.952Z,99537.40
2024-01-24T05:01:18.998Z,99508.00
2024-01-24T05:06:28.747Z,99492.00
2024-01-24T05:11:38.524Z,99468.80
2024-01-24T05:16:49.207Z,99451.60
2024-01-24T05:21:59.976Z,99431.60
2024-01-24T05:27:10.575Z,99414.20
2024-01-24T05:32:20.463Z,99398.00
2024-01-24T05:37:30.878Z,99384.60
2024-01-24T05:42:40.974Z,99368.20
2024-01-24T05:47:51.242Z,99328.80
2024-01-24T05:53:01.029Z,99296.60
2024-01-24T05:58:11.528Z,99272.00
2024-01-24T06:03:21.237Z,99246.40
2024-01-24T06:08:32.815Z,99235.80
2024-01-24T06:13:42.846Z,99202.40
2024-01-24T06:18:52.798Z,99174.40
2024-01-24T06:24:02.854Z,99141.60
2024-01-24T06:29:12.893Z,99117.20
2024-01-24T06:34:23.456Z,99111.20
2024-01-24T06:39:33.260Z,99102.00
2024-01-24T06:44:43.514Z,99089.00
2024-01-24T06:49:54.395Z,99075.40
2024-01-24T06:55:04.456Z,99063.00
2024-01-24T07:00:17.345Z,99063.80
2024-01-24T07:05:27.245Z,99037.80
2024-01-24T07:10:36.970Z,99031.40
2024-01-24T07:15:46.978Z,99015.00
2024-01-24T07:20:57.679Z,99013.80
2024-01-24T07:26:07.794Z,98979.60
2024-01-24T07:31:19.049Z,98976.60
2024-01-24T07:36:29.495Z,98964.00
2024-01-24T07:41:39.512Z,98955.40
2024-01-24T07:46:49.589Z,98941.40
2024-01-24T07:51:59.884Z,98916.60
2024-01-24T07:57:10.197Z,98927.60
2024-01-24T08:02:20.992Z,98914.40
2024-01-24T08:07:34.710Z,98902.00
2024-01-24T08:12:44.655Z,98892.20
2024-01-24T08:17:54.648Z,98865.20
2024-01-24T08:23:04.766Z,98862.00
2024-01-24T08:28:14.734Z,98846.40
2024-01-24T08:33:24.650Z,98842.80
2024-01-24T08:38:34.474Z,98840.60
2024-01-24T08:43:44.373Z,98812.40
2024-01-24T08:48:54.222Z,98814.00
2024-01-24T08:54:04.894Z,98794.60
2024-01-24T08:59:15.001Z,98805.20
2024-01-24T09:04:25.669Z,98783.20
2024-01-24T09:09:39.160Z,98776.20
2024-01-24T09:14:52.447Z,98758.60
2024-01-24T09:20:02.644Z,98736.40
2024-01-24T09:25:14.952Z,98714.40
2024-01-24T09:30:26.822Z,98719.20
2024-01-24T09:35:36.645Z,98739.20
2024-01-24T09:40:47.200Z,98726.40
2024-01-24T09:45:59.202Z,98737.40
2024-01-24T09:51:10.360Z,98743.00
2024-01-24T09:56:23.622Z,98753.00
2024-01-24T10:01:39.211Z,98750.20
2024-01-24T10:06:51.339Z,98739.60
2024-01-24T10:12:01.163Z,98735.00
2024-01-24T10:17:13.441Z,98724.00
2024-01-24T10:22:24.491Z,98713.80
2024-01-24T10:27:35.023Z,98722.60
2024-01-24T10:32:49.476Z,98699.80
2024-01-24T10:38:00.593Z,98709.40
2024-01-24T10:43:16.493Z,98711.60
2024-01-24T10:48:26.876Z,98718.00
2024-01-24T10:53:39.036Z,98712.80
2024-01-24T10:58:50.632Z,98710.80
2024-01-24T11:04:03.832Z,98704.80
2024-01-24T11:09:28.245Z,98699.80
2024-01-24T11:14:38.935Z,98706.40
2024-01-24T11:19:50.637Z,98704.80
2024-01-24T11:25:01.075Z,98722.40
2024-01-24T11:30:42.462Z,98724.60
2024-01-24T11:35:55.391Z,98702.00
2024-01-24T11:41:25.522Z,98696.20
2024-01-24T11:46:36.306Z,98702.00
2024-01-24T11:51:46.324Z,98701.40
2024-01-24T11:56:56.181Z,98682.60
2024-01-24T12:02:07.817Z,98678.40
2024-01-24T12:07:18.060Z,98687.00
2024-01-24T12:12:30.398Z,98691.20
2024-01-24T12:17:43.545Z,98687.40
2024-01-24T12:22:55.624Z,98685.80
2024-01-24T12:28:07.184Z,98681.20
2024-01-24T12:33:18.753Z,98680.60
2024-01-24T12:38:29.225Z,98683.40
2024-01-24T12:43:39.919Z,98688.00
2024-01-24T12:48:50.286Z,98688.40
2024-01-24T12:54:00.325Z,98695.60
2024-01-24T12:59:10.869Z,98694.20
2024-01-24T13:04:20.810Z,98698.00
2024-01-24T13:09:32.905Z,98693.00
2024-01-24T13:14:47.057Z,98692.80
2024-01-24T13:19:56.907Z,98693.00
2024-01-24T13:25:07.172Z,98699.20
2024-01-24T13:30:18.454Z,98704.40
2024-01-24T13:35:29.011Z,98709.20
2024-01-24T13:40:40.878Z,98708.40
2024-01-24T13:45:50.626Z,98717.80
2024-01-24T13:51:00.879Z,98706.60
2024-01-24T13:56:12.068Z,98700.40
2024-01-24T14:01:22.142Z,98693.40
2024-01-24T14:06:32.117Z,98697.40
2024-01-24T14:11:42.240Z,98699.00
2024-01-24T14:16:52.190Z,98697.80
2024-01-24T14:22:02.138Z,98704.40
2024-01-24T14:27:12.728Z,98714.80
2024-01-24T14:32:24.289Z,98717.20
2024-01-24T14:37:34.147Z,98718.00
2024-01-24T14:42:44.390Z,98713.80
2024-01-24T14:47:54.185Z,98702.40
2024-01-24T14:53:03.828Z,98711.00
2024-01-24T14:58:14.027Z,98709.80
2024-01-24T15:03:24.072Z,98704.00
2024-01-24T15:08:34.502Z,98715.00
2024-01-24T15:13:44.713Z,98711.00
2024-01-24T15:18:55.230Z,98712.80
2024-01-24T15:24:07.534Z,98709.80
2024-01-24T15:29:17.466Z,98723.00
2024-01-24T15:34:27.657Z,98731.20
2024-01-24T15:39:37.489Z,98722.40
2024-01-24T15:44:47.629Z,98717.60
2024-01-24T15:49:57.684Z,98723.40
2024-01-24T15:55:09.053Z,98726.80
2024-01-24T16:00:21.579Z,98727.00
2024-01-24T16:05:43.777Z,98727.40
2024-01-24T16:10:54.510Z,98725.20
2024-01-24T16:16:08.256Z,98735.20
2024-01-24T16:21:18.867Z,98732.80
2024-01-24T16:26:29.642Z,98726.80
2024-01-24T16:31:40.128Z,98731.60
2024-01-24T16:36:50.169Z,98722.60
2024-01-24T16:42:00.797Z,98722.40
2024-01-24T16:47:11.140Z,98722.80
2024-01-24T16:52:22.017Z,98715.40
2024-01-24T16:57:32.117Z,98714.60
2024-01-24T17:02:46.547Z,98710.80
2024-01-24T17:08:01.662Z,98707.60
2024-01-24T17:13:11.735Z,98711.60
2024-01-24T17:18:22.335Z,98711.80
2024-01-24T17:23:33.559Z,98711.80
2024-01-24T17:28:43.550Z,98705.80
2024-01-24T17:33:53.486Z,98719.00
2024-01-24T17:39:05.776Z,98705.00
2024-01-24T17:44:16.354Z,98709.60
2024-01-24T17:49:26.631Z,98700.60
2024-01-24T17:54:36.651Z,98707.40
2024-01-24T17:59:46.723Z,98712.20
2024-01-24T18:04:56.568Z,98710.40
2024-01-24T18:10:07.018Z,98694.40
2024-01-24T18:15:18.517Z,98693.60
2024-01-24T18:20:31.533Z,98691.40
2024-01-24T18:25:41.362Z,98700.60
2024-01-24T18:30:53.624Z,98701.40
2024-01-24T18:36:05.021Z,98703.00
2024-01-24T18:41:20.240Z,98705.80
2024-01-24T18:46:30.641Z,98699.00
2024-01-24T18:51:40.476Z,98702.00
2024-01-24T18:56:50.221Z,98699.40
2024-01-24T19:02:01.222Z,98699.40
2024-01-24T19:07:11.649Z,98705.40
2024-01-24T19:12:21.558Z,98707.00
2024-01-24T19:17:31.519Z,98703.40
2024-01-24T19:22:41.636Z,98690.20
2024-01-24T19:27:51.736Z,98696.80
2024-01-24T19:33:01.698Z,98696.80
2024-01-24T19:38:13.072Z,98692.20
2024-01-24T19:43:22.955Z,98699.20
2024-01-24T19:48:33.311Z,98706.80
2024-01-24T19:53:43.281Z,98695.40
2024-01-24T19:58:53.558Z,98691.40
2024-01-24T20:04:03.495Z,98700.00
2024-01-24T20:09:14.508Z,98696.20
2024-01-24T20:14:24.499Z,98702.40
2024-01-24T20:19:34.771Z,98702.00
2024-01-24T20:24:44.523Z,98698.20
2024-01-24T20:29:54.455Z,98695.20
2024-01-24T20:35:04.988Z,98686.00
2024-01-24T20:40:16.236Z,98687.60
2024-01-24T20:45:26.497Z,98679.20
2024-01-24T20:50:37.863Z,98688.60
2024-01-24T20:55:47.842Z,98680.20
2024-01-24T21:00:57.501Z,98683.40
2024-01-24T21:06:08.980Z,98685.60
2024-01-24T21:11:19.330Z,98681.00
2024-01-24T21:16:29.406Z,98680.20
2024-01-24T21:21:39.502Z,98697.00
2024-01-24T21:26:49.595Z,98691.40
2024-01-24T21:31:59.851Z,98690.20
2024-01-24T21:37:09.697Z,98691.60
2024-01-24T21:42:20.005Z,98698.20
2024-01-24T21:47:30.053Z,98703.20
2024-01-24T21:52:39.974Z,98700.80
2024-01-24T21:57:52.812Z,98710.40
2024-01-24T22:03:02.658Z,98713.80
2024-01-24T22:08:18.485Z,98709.20
2024-01-24T22:13:28.811Z,98713.00
2024-01-24T22:18:44.459Z,98726.80
2024-01-24T22:23:58.401Z,98729.80
2024-01-24T22:29:10.581Z,98735.60
2024-01-24T22:34:20.527Z,98736.00
2024-01-24T22:39:30.556Z,98747.80
2024-01-24T22:44:41.841Z,98750.20
2024-01-24T22:49:51.797Z,98757.20
2024-01-24T22:55:02.516Z,98763.00
2024-01-24T23:00:15.849Z,98760.20
2024-01-24T23:05:25.740Z,98755.00
2024-01-24T23:10:35.973Z,98764.80
2024-01-24T23:15:46.195Z,98755.40
2024-01-24T23:20:56.090Z,98743.20
2024-01-24T23:26:06.160Z,98757.40
2024-01-24T23:31:16.825Z,98766.20
2024-01-24T23:36:26.986Z,98764.20
2024-01-24T23:41:39.894Z,98754.40
2024-01-24T23:46:49.678Z,98760.00
2024-01-24T23:51:59.534Z,98765.80
2024-01-24T23:57:09.826Z,98765.00
